createdAt,value
2017-08-25T00:01:50.938Z,14.68
2017-08-25T00:04:18.747Z,15.95
2017-08-25T00:06:46.515Z,14.50
2017-08-25T00:09:14.302Z,16.08
2017-08-25T00:11:42.076Z,16.60
2017-08-25T00:14:09.826Z,15.05
2017-08-25T00:16:37.627Z,16.10
2017-08-25T00:19:05.373Z,15.65
2017-08-25T00:21:33.111Z,16.58
2017-08-25T00:24:01.906Z,15.70
2017-08-25T00:26:29.656Z,16.65
2017-08-25T00:28:57.459Z,18.73
2017-08-25T00:31:25.207Z,18.12
2017-08-25T00:33:52.953Z,18.15
2017-08-25T00:36:20.756Z,17.05
2017-08-25T00:38:48.499Z,18.45
2017-08-25T00:41:16.299Z,17.85
2017-08-25T00:43:44.076Z,19.70
2017-08-25T00:46:11.823Z,20.67
2017-08-25T00:48:39.607Z,20.75
2017-08-25T00:51:07.365Z,21.27
2017-08-25T00:53:35.551Z,20.73
2017-08-25T00:56:03.304Z,20.33
2017-08-25T00:58:31.051Z,21.42
2017-08-25T01:00:58.824Z,20.88
2017-08-25T01:03:26.580Z,19.80
2017-08-25T01:05:54.415Z,20.73
2017-08-25T01:08:22.167Z,20.85
2017-08-25T01:10:49.911Z,22.60
2017-08-25T01:13:17.695Z,23.12
2017-08-25T01:15:45.436Z,22.10
2017-08-25T01:18:13.238Z,20.67
2017-08-25T01:20:41.011Z,22.65
2017-08-25T01:23:08.788Z,23.65
2017-08-25T01:25:36.595Z,24.15
2017-08-25T01:28:04.358Z,24.30
2017-08-25T01:30:32.183Z,27.08
2017-08-25T01:32:59.951Z,28.48
2017-08-25T01:35:27.731Z,26.23
2017-08-25T01:37:55.515Z,27.73
2017-08-25T01:40:23.276Z,33.00
2017-08-25T01:42:51.091Z,28.05
2017-08-25T01:45:18.852Z,27.10
2017-08-25T01:47:46.614Z,28.10
2017-08-25T01:50:14.406Z,27.83
2017-08-25T01:52:42.176Z,26.33
2017-08-25T01:55:09.983Z,28.67
2017-08-25T01:57:37.746Z,26.37
2017-08-25T02:00:05.496Z,28.55
2017-08-25T02:02:33.273Z,28.12
2017-08-25T02:05:01.034Z,26.55
2017-08-25T02:07:28.863Z,27.27
2017-08-25T02:09:56.623Z,27.80
2017-08-25T02:12:24.364Z,28.25
2017-08-25T02:14:52.140Z,30.05
2017-08-25T02:17:19.897Z,30.77
2017-08-25T02:19:47.691Z,30.95
2017-08-25T02:22:15.445Z,33.22
2017-08-25T02:24:43.200Z,35.13
2017-08-25T02:27:10.991Z,31.60
2017-08-25T02:29:38.735Z,31.65
2017-08-25T02:32:06.538Z,33.75
2017-08-25T02:34:34.296Z,33.47
2017-08-25T02:37:02.059Z,33.53
2017-08-25T02:39:29.853Z,35.55
2017-08-25T02:41:57.600Z,36.67
2017-08-25T02:44:25.415Z,37.83
2017-08-25T02:46:53.158Z,37.88
2017-08-25T02:49:20.904Z,39.00
2017-08-25T02:51:48.679Z,37.55
2017-08-25T02:54:16.426Z,36.28
2017-08-25T02:56:44.245Z,40.92
2017-08-25T02:59:11.992Z,39.30
2017-08-25T03:01:39.734Z,38.78
2017-08-25T03:04:07.504Z,39.40
2017-08-25T03:06:35.244Z,40.00
2017-08-25T03:09:03.063Z,40.28
2017-08-25T03:11:30.811Z,41.85
2017-08-25T03:13:58.555Z,43.55
2017-08-25T03:16:26.339Z,40.58
2017-08-25T03:18:54.087Z,41.97
2017-08-25T03:21:21.889Z,43.53
2017-08-25T03:23:49.632Z,39.58
2017-08-25T03:26:17.379Z,43.35
2017-08-25T03:28:45.168Z,41.55
2017-08-25T03:31:12.909Z,44.78
2017-08-25T03:33:40.959Z,39.70
2017-08-25T03:36:08.707Z,39.35
2017-08-25T03:38:36.452Z,40.47
2017-08-25T03:41:04.234Z,41.22
2017-08-25T03:43:31.984Z,39.35
2017-08-25T03:45:59.779Z,40.30
2017-08-25T03:48:27.516Z,41.78
2017-08-25T03:50:55.254Z,43.65
2017-08-25T03:53:23.028Z,42.47
2017-08-25T03:55:50.775Z,41.67
2017-08-25T03:58:18.580Z,42.40
2017-08-25T04:00:46.323Z,41.95
2017-08-25T04:03:14.063Z,40.72
2017-08-25T04:05:41.837Z,42.95
2017-08-25T04:08:09.575Z,38.53
2017-08-25T04:10:37.375Z,39.65
2017-08-25T04:13:05.128Z,37.97
2017-08-25T04:15:32.870Z,36.90
2017-08-25T04:18:00.652Z,36.00
2017-08-25T04:20:28.403Z,36.92
2017-08-25T04:22:56.202Z,32.17
2017-08-25T04:25:23.944Z,33.90
2017-08-25T04:27:51.725Z,33.95
2017-08-25T04:30:19.495Z,34.05
2017-08-25T04:32:47.239Z,29.23
2017-08-25T04:35:15.055Z,30.30
2017-08-25T04:37:42.817Z,30.67
2017-08-25T04:40:10.590Z,29.12
2017-08-25T04:42:38.371Z,29.87
2017-08-25T04:45:06.113Z,28.73
2017-08-25T04:47:33.929Z,28.38
2017-08-25T04:50:01.677Z,27.62
2017-08-25T04:52:29.419Z,28.80
2017-08-25T04:54:57.195Z,27.67
2017-08-25T04:57:24.939Z,28.02
2017-08-25T04:59:52.749Z,26.27
2017-08-25T05:02:20.506Z,25.95
2017-08-25T05:04:48.264Z,24.15
2017-08-25T05:07:17.025Z,24.33
2017-08-25T05:09:44.820Z,24.42
2017-08-25T05:12:12.627Z,25.85
2017-08-25T05:14:40.375Z,23.25
2017-08-25T05:17:08.118Z,23.35
2017-08-25T05:19:35.892Z,25.23
2017-08-25T05:22:03.639Z,24.35
2017-08-25T05:24:31.444Z,24.52
2017-08-25T05:26:59.189Z,24.52
2017-08-25T05:29:26.928Z,22.83
2017-08-25T05:31:54.702Z,22.48
2017-08-25T05:34:22.455Z,23.45
2017-08-25T05:36:50.260Z,23.40
2017-08-25T05:39:18.005Z,23.02
2017-08-25T05:41:45.749Z,22.27
2017-08-25T05:44:13.524Z,21.83
2017-08-25T05:46:41.292Z,23.10
2017-08-25T05:49:09.092Z,24.48
2017-08-25T05:51:36.832Z,19.62
2017-08-25T05:54:04.575Z,22.50
2017-08-25T05:56:32.347Z,21.10
2017-08-25T05:59:00.087Z,19.92
2017-08-25T06:01:27.900Z,18.33
2017-08-25T06:03:55.649Z,28.27
2017-08-25T06:06:23.422Z,20.95
2017-08-25T06:08:51.195Z,18.77
2017-08-25T06:11:18.940Z,20.98
2017-08-25T06:13:46.747Z,19.67
2017-08-25T06:16:14.515Z,22.80
2017-08-25T06:18:42.272Z,19.27
2017-08-25T06:21:10.050Z,19.17
2017-08-25T06:23:37.791Z,17.05
2017-08-25T06:26:06.428Z,18.77
2017-08-25T06:28:34.171Z,20.92
2017-08-25T06:31:01.916Z,18.73
2017-08-25T06:33:29.698Z,17.85
2017-08-25T06:35:57.819Z,19.55
2017-08-25T06:38:25.639Z,20.83
2017-08-25T06:40:53.390Z,17.95
2017-08-25T06:43:21.144Z,18.27
2017-08-25T06:45:48.918Z,19.45
2017-08-25T06:48:17.425Z,20.20
2017-08-25T06:50:45.334Z,20.08
2017-08-25T06:53:13.083Z,18.67
2017-08-25T06:55:40.836Z,20.52
2017-08-25T06:58:08.628Z,19.50
2017-08-25T07:00:36.371Z,21.75
2017-08-25T07:03:04.172Z,20.75
2017-08-25T07:05:31.927Z,20.70
2017-08-25T07:07:59.679Z,16.30
2017-08-25T07:10:27.460Z,19.52
2017-08-25T07:12:55.205Z,20.30
2017-08-25T07:15:23.009Z,18.85
2017-08-25T07:17:50.752Z,21.87
2017-08-25T07:20:18.502Z,18.12
2017-08-25T07:22:47.659Z,20.55
2017-08-25T07:25:18.374Z,21.20
2017-08-25T07:27:46.216Z,20.40
2017-08-25T07:30:14.126Z,20.05
2017-08-25T07:32:41.867Z,17.75
2017-08-25T07:35:09.645Z,19.37
2017-08-25T07:37:37.400Z,21.52
2017-08-25T07:40:05.206Z,19.23
2017-08-25T07:42:32.951Z,19.62
2017-08-25T07:45:00.700Z,20.45
2017-08-25T07:47:28.476Z,20.73
2017-08-25T07:49:56.231Z,22.05
2017-08-25T07:52:24.035Z,20.85
2017-08-25T07:54:51.780Z,19.90
2017-08-25T07:57:19.528Z,20.33
2017-08-25T07:59:47.354Z,19.52
2017-08-25T08:02:15.113Z,21.98
2017-08-25T08:04:42.911Z,20.70
2017-08-25T08:07:10.660Z,19.20
2017-08-25T08:09:38.399Z,18.43
2017-08-25T08:12:06.175Z,18.17
2017-08-25T08:14:33.922Z,19.77
2017-08-25T08:17:01.733Z,18.70
2017-08-25T08:19:29.501Z,18.30
2017-08-25T08:21:57.248Z,16.63
2017-08-25T08:24:26.139Z,19.33
2017-08-25T08:26:54.743Z,20.30
2017-08-25T08:29:22.557Z,18.37
2017-08-25T08:31:50.330Z,19.23
2017-08-25T08:34:18.076Z,17.27
2017-08-25T08:36:45.854Z,17.47
2017-08-25T08:39:13.600Z,18.57
2017-08-25T08:41:41.404Z,16.70
2017-08-25T08:44:09.155Z,15.73
2017-08-25T08:46:36.912Z,19.03
2017-08-25T08:49:04.765Z,19.07
2017-08-25T08:51:32.513Z,18.13
2017-08-25T08:54:00.320Z,20.20
2017-08-25T08:56:28.068Z,16.87
2017-08-25T08:58:55.818Z,17.43
2017-08-25T09:01:23.592Z,16.93
2017-08-25T09:03:51.338Z,16.93
2017-08-25T09:06:36.747Z,18.00
2017-08-25T09:09:04.520Z,17.80
2017-08-25T09:11:32.324Z,19.07
2017-08-25T09:14:00.078Z,17.00
2017-08-25T09:16:27.825Z,17.23
2017-08-25T09:18:55.619Z,20.20
2017-08-25T09:21:23.404Z,17.70
2017-08-25T09:23:51.215Z,18.03
2017-08-25T09:26:18.963Z,17.77
2017-08-25T09:28:46.764Z,17.92
2017-08-25T09:31:14.543Z,18.20
2017-08-25T09:33:42.304Z,18.87
2017-08-25T09:36:10.112Z,20.30
2017-08-25T09:38:37.859Z,18.17
2017-08-25T09:41:05.620Z,17.83
2017-08-25T09:43:33.432Z,17.67
2017-08-25T09:46:01.186Z,18.05
2017-08-25T09:48:29.252Z,18.50
2017-08-25T09:50:56.992Z,18.48
2017-08-25T09:53:24.755Z,17.33
2017-08-25T09:55:52.532Z,18.73
2017-08-25T09:58:20.283Z,18.55
2017-08-25T10:00:48.084Z,18.23
2017-08-25T10:03:15.830Z,19.62
2017-08-25T10:05:43.652Z,18.92
2017-08-25T10:08:11.489Z,18.12
2017-08-25T10:10:39.240Z,18.42
2017-08-25T10:13:07.057Z,17.15
2017-08-25T10:15:35.248Z,19.48
2017-08-25T10:18:03.000Z,18.37
2017-08-25T10:20:30.816Z,18.42
2017-08-25T10:22:58.557Z,13.57
2017-08-25T10:25:26.363Z,11.70
2017-08-25T10:27:54.161Z,11.73
2017-08-25T10:30:21.907Z,11.73
2017-08-25T10:32:49.935Z,10.65
2017-08-25T10:35:29.639Z,10.00
2017-08-25T10:38:09.244Z,10.00
2017-08-25T10:40:48.763Z,8.63
2017-08-25T10:43:28.540Z,10.05
2017-08-25T10:45:56.291Z,9.50
2017-08-25T10:48:24.084Z,8.65
2017-08-25T10:50:51.832Z,8.70
2017-08-25T10:53:19.571Z,8.10
2017-08-25T10:55:47.345Z,9.18
2017-08-25T10:58:15.098Z,10.13
2017-08-25T11:00:42.907Z,8.10
2017-08-25T11:03:10.644Z,7.90
2017-08-25T11:05:38.383Z,7.95
2017-08-25T11:08:06.149Z,8.63
2017-08-25T11:10:33.887Z,9.75
2017-08-25T11:13:01.714Z,9.32
2017-08-25T11:15:29.457Z,9.52
2017-08-25T11:17:57.204Z,10.38
2017-08-25T11:20:24.985Z,10.30
2017-08-25T11:22:52.728Z,10.70
2017-08-25T11:25:20.523Z,9.90
2017-08-25T11:27:48.269Z,11.30
2017-08-25T11:30:16.013Z,10.00
2017-08-25T11:32:43.795Z,10.38
2017-08-25T11:35:11.539Z,11.40
2017-08-25T11:37:39.340Z,10.05
2017-08-25T11:40:07.085Z,11.35
2017-08-25T11:42:34.842Z,11.12
2017-08-25T11:45:02.660Z,10.65
2017-08-25T11:47:30.405Z,10.30
2017-08-25T11:49:58.427Z,11.00
2017-08-25T11:52:26.211Z,9.30
2017-08-25T11:54:53.948Z,9.85
2017-08-25T11:57:21.721Z,9.50
2017-08-25T11:59:49.467Z,9.50
2017-08-25T12:02:17.434Z,9.00
2017-08-25T12:04:45.179Z,10.35
2017-08-25T12:07:12.923Z,9.73
2017-08-25T12:09:40.686Z,7.95
2017-08-25T12:12:08.440Z,8.60
2017-08-25T12:14:36.230Z,8.40
2017-08-25T12:17:03.987Z,8.27
2017-08-25T12:19:31.725Z,8.98
2017-08-25T12:21:59.504Z,8.25
2017-08-25T12:24:27.236Z,8.82
2017-08-25T12:26:55.053Z,8.32
2017-08-25T12:29:22.787Z,8.98
2017-08-25T12:31:50.528Z,8.70
2017-08-25T12:34:18.295Z,8.88
2017-08-25T12:36:46.035Z,9.95
2017-08-25T12:39:14.068Z,7.72
2017-08-25T12:41:41.824Z,7.37
2017-08-25T12:44:09.567Z,8.25
2017-08-25T12:46:37.335Z,7.78
2017-08-25T12:49:05.085Z,7.05
2017-08-25T12:51:32.887Z,7.65
2017-08-25T12:54:00.632Z,6.60
2017-08-25T12:56:28.371Z,7.50
2017-08-25T12:58:56.139Z,7.20
2017-08-25T13:01:23.880Z,8.00
2017-08-25T13:03:51.674Z,7.03
2017-08-25T13:06:19.423Z,8.20
2017-08-25T13:08:47.160Z,7.57
2017-08-25T13:11:14.927Z,6.82
2017-08-25T13:13:42.672Z,6.80
2017-08-25T13:16:10.480Z,6.82
2017-08-25T13:18:38.220Z,6.37
2017-08-25T13:21:05.962Z,7.43
2017-08-25T13:23:33.735Z,6.72
2017-08-25T13:26:01.487Z,7.03
2017-08-25T13:28:29.284Z,6.97
2017-08-25T13:30:57.033Z,6.43
2017-08-25T13:33:24.768Z,7.32
2017-08-25T13:35:52.544Z,6.45
2017-08-25T13:38:20.301Z,6.32
2017-08-25T13:40:48.102Z,6.70
2017-08-25T13:43:15.836Z,6.05
2017-08-25T13:45:43.584Z,6.85
2017-08-25T13:48:11.351Z,6.80
2017-08-25T13:50:39.089Z,6.43
2017-08-25T13:53:06.896Z,5.93
2017-08-25T13:55:34.632Z,6.18
2017-08-25T13:58:02.367Z,5.68
2017-08-25T14:00:30.135Z,7.75
2017-08-25T14:02:57.875Z,6.47
2017-08-25T14:05:25.663Z,6.87
2017-08-25T14:07:53.410Z,6.80
2017-08-25T14:10:21.144Z,6.40
2017-08-25T14:12:48.907Z,6.43
2017-08-25T14:15:16.643Z,6.50
2017-08-25T14:17:44.416Z,6.62
2017-08-25T14:20:12.256Z,5.53
2017-08-25T14:22:40.003Z,6.37
2017-08-25T14:25:07.767Z,6.53
2017-08-25T14:27:35.519Z,7.05
2017-08-25T14:30:03.323Z,6.60
2017-08-25T14:32:31.060Z,6.10
2017-08-25T14:34:58.796Z,6.37
2017-08-25T14:37:26.567Z,6.55
2017-08-25T14:39:54.304Z,5.90
2017-08-25T14:42:22.097Z,6.12
2017-08-25T14:44:49.840Z,7.18
2017-08-25T14:47:17.575Z,7.20
2017-08-25T14:49:45.347Z,6.53
2017-08-25T14:52:13.080Z,7.37
2017-08-25T14:54:40.872Z,6.55
2017-08-25T14:57:08.619Z,5.50
2017-08-25T14:59:36.355Z,5.45
2017-08-25T15:02:04.241Z,6.55
2017-08-25T15:04:31.981Z,6.62
2017-08-25T15:06:59.792Z,6.70
2017-08-25T15:09:27.548Z,7.12
2017-08-25T15:11:55.283Z,6.90
2017-08-25T15:14:23.060Z,7.05
2017-08-25T15:16:50.838Z,5.90
2017-08-25T15:19:18.636Z,6.50
2017-08-25T15:21:46.372Z,6.95
2017-08-25T15:24:14.109Z,6.57
2017-08-25T15:26:41.883Z,6.75
2017-08-25T15:29:12.899Z,5.82
2017-08-25T15:31:40.704Z,7.47
2017-08-25T15:34:08.440Z,7.82
2017-08-25T15:36:36.176Z,6.60
2017-08-25T15:39:03.992Z,6.90
2017-08-25T15:41:31.749Z,6.47
2017-08-25T15:43:59.559Z,6.50
2017-08-25T15:46:27.363Z,7.72
2017-08-25T15:48:55.115Z,7.05
2017-08-25T15:51:22.892Z,7.35
2017-08-25T15:53:50.631Z,7.57
2017-08-25T15:56:18.434Z,8.02
2017-08-25T15:58:46.184Z,6.85
2017-08-25T16:01:13.949Z,6.50
2017-08-25T16:03:41.729Z,7.62
2017-08-25T16:06:10.462Z,7.97
2017-08-25T16:08:38.285Z,6.55
2017-08-25T16:11:06.023Z,7.82
2017-08-25T16:13:33.895Z,7.87
2017-08-25T16:16:01.663Z,7.70
2017-08-25T16:18:29.713Z,7.90
2017-08-25T16:20:57.514Z,8.07
2017-08-25T16:23:25.260Z,8.18
2017-08-25T16:25:53.005Z,8.02
2017-08-25T16:28:20.776Z,7.72
2017-08-25T16:30:48.515Z,7.25
2017-08-25T16:33:16.324Z,8.40
2017-08-25T16:35:44.067Z,7.85
2017-08-25T16:38:11.803Z,7.72
2017-08-25T16:40:39.576Z,8.25
2017-08-25T16:43:07.327Z,8.70
2017-08-25T16:45:35.128Z,7.28
2017-08-25T16:48:02.924Z,8.60
2017-08-25T16:50:30.669Z,7.60
2017-08-25T16:52:58.463Z,8.10
2017-08-25T16:55:26.204Z,8.63
2017-08-25T16:57:54.007Z,7.57
2017-08-25T17:00:21.748Z,8.52
2017-08-25T17:02:49.738Z,8.52
2017-08-25T17:05:17.602Z,8.18
2017-08-25T17:07:45.339Z,8.07
2017-08-25T17:10:13.140Z,9.57
2017-08-25T17:12:40.877Z,9.38
2017-08-25T17:15:08.624Z,8.50
2017-08-25T17:17:36.489Z,9.57
2017-08-25T17:20:04.243Z,8.85
2017-08-25T17:22:32.043Z,8.88
2017-08-25T17:25:00.499Z,8.57
2017-08-25T17:27:28.250Z,9.70
2017-08-25T17:29:56.024Z,9.93
2017-08-25T17:32:23.769Z,9.02
2017-08-25T17:34:51.570Z,9.90
2017-08-25T17:37:20.118Z,9.95
2017-08-25T17:39:47.860Z,9.45
2017-08-25T17:42:15.718Z,10.20
2017-08-25T17:44:43.517Z,9.52
2017-08-25T17:47:11.329Z,9.27
2017-08-25T17:49:39.081Z,10.50
2017-08-25T17:52:07.931Z,10.50
2017-08-25T17:54:35.710Z,11.40
2017-08-25T17:57:03.480Z,11.27
2017-08-25T17:59:31.292Z,12.30
2017-08-25T18:01:59.047Z,11.57
2017-08-25T18:04:26.796Z,12.18
2017-08-25T18:06:54.604Z,11.30
2017-08-25T18:09:22.780Z,10.95
2017-08-25T18:11:50.588Z,12.88
2017-08-25T18:14:18.783Z,14.57
2017-08-25T18:16:46.725Z,11.70
2017-08-25T18:19:14.507Z,12.45
2017-08-25T18:21:42.281Z,12.37
2017-08-25T18:24:10.125Z,11.75
2017-08-25T18:26:37.964Z,11.98
2017-08-25T18:29:05.746Z,13.77
2017-08-25T18:31:33.636Z,11.90
2017-08-25T18:34:01.422Z,14.18
2017-08-25T18:36:29.295Z,15.00
2017-08-25T18:38:57.082Z,12.75
2017-08-25T18:41:24.827Z,12.37
2017-08-25T18:43:52.642Z,13.98
2017-08-25T18:46:20.401Z,13.60
2017-08-25T18:48:48.208Z,12.57
2017-08-25T18:51:15.974Z,13.60
2017-08-25T18:53:43.715Z,13.93
2017-08-25T18:56:11.502Z,14.50
2017-08-25T18:58:39.252Z,13.00
2017-08-25T19:01:08.049Z,13.65
2017-08-25T19:03:35.888Z,13.50
2017-08-25T19:06:03.744Z,15.00
2017-08-25T19:08:31.557Z,16.50
2017-08-25T19:10:59.313Z,14.93
2017-08-25T19:13:27.189Z,16.33
2017-08-25T19:15:54.959Z,13.85
2017-08-25T19:18:22.746Z,14.35
2017-08-25T19:20:50.544Z,16.52
2017-08-25T19:23:18.334Z,17.50
2017-08-25T19:25:46.155Z,17.00
2017-08-25T19:28:13.921Z,18.15
2017-08-25T19:30:41.748Z,18.75
2017-08-25T19:33:10.190Z,18.37
2017-08-25T19:35:39.868Z,18.33
2017-08-25T19:38:07.744Z,19.70
2017-08-25T19:40:38.053Z,18.30
2017-08-25T19:43:07.205Z,17.30
2017-08-25T19:45:34.987Z,20.50
2017-08-25T19:48:02.732Z,18.73
2017-08-25T19:50:30.730Z,17.55
2017-08-25T19:53:01.109Z,19.40
2017-08-25T19:55:28.906Z,18.05
2017-08-25T19:57:57.346Z,18.12
2017-08-25T20:00:25.133Z,19.40
2017-08-25T20:02:53.798Z,19.45
2017-08-25T20:05:21.572Z,19.35
2017-08-25T20:07:50.023Z,20.00
2017-08-25T20:10:17.827Z,20.35
2017-08-25T20:12:45.573Z,20.45
2017-08-25T20:15:13.371Z,19.20
2017-08-25T20:17:41.119Z,20.65
2017-08-25T20:20:08.866Z,19.37
2017-08-25T20:22:36.655Z,17.33
2017-08-25T20:25:04.413Z,18.05
2017-08-25T20:27:32.292Z,18.52
2017-08-25T20:30:00.049Z,19.40
2017-08-25T20:32:27.795Z,17.85
2017-08-25T20:34:55.616Z,20.00
2017-08-25T20:37:23.375Z,20.50
2017-08-25T20:39:51.180Z,19.15
2017-08-25T20:42:18.921Z,17.83
2017-08-25T20:44:46.664Z,16.62
2017-08-25T20:47:14.435Z,20.00
2017-08-25T20:49:42.184Z,18.73
2017-08-25T20:52:09.986Z,19.35
2017-08-25T20:54:37.731Z,20.15
2017-08-25T20:57:05.475Z,19.85
2017-08-25T20:59:33.253Z,21.83
2017-08-25T21:02:01.053Z,20.95
2017-08-25T21:04:28.858Z,20.88
2017-08-25T21:06:56.623Z,20.75
2017-08-25T21:09:24.377Z,21.50
2017-08-25T21:11:52.160Z,20.88
2017-08-25T21:14:19.905Z,20.60
2017-08-25T21:16:47.710Z,20.58
2017-08-25T21:19:15.456Z,20.58
2017-08-25T21:21:43.211Z,21.75
2017-08-25T21:24:11.001Z,22.23
2017-08-25T21:26:38.749Z,20.83
2017-08-25T21:29:06.561Z,18.95
2017-08-25T21:31:34.314Z,20.83
2017-08-25T21:34:02.068Z,20.33
2017-08-25T21:36:29.857Z,20.05
2017-08-25T21:38:57.608Z,20.08
2017-08-25T21:41:25.413Z,20.48
2017-08-25T21:43:53.160Z,22.00
2017-08-25T21:46:20.908Z,21.17
2017-08-25T21:48:48.684Z,21.02
2017-08-25T21:51:16.431Z,21.23
2017-08-25T21:53:44.248Z,20.42
2017-08-25T21:56:12.000Z,20.33
2017-08-25T21:58:39.753Z,21.60
2017-08-25T22:01:07.528Z,21.42
2017-08-25T22:03:35.275Z,23.92
2017-08-25T22:06:03.077Z,20.42
2017-08-25T22:08:30.824Z,20.15
2017-08-25T22:10:58.571Z,20.42
2017-08-25T22:13:26.344Z,22.48
2017-08-25T22:15:54.088Z,21.08
2017-08-25T22:18:21.883Z,22.05
2017-08-25T22:20:49.636Z,21.85
2017-08-25T22:23:17.381Z,21.52
2017-08-25T22:25:45.160Z,22.75
2017-08-25T22:28:12.908Z,21.77
2017-08-25T22:30:40.713Z,20.85
2017-08-25T22:33:08.459Z,21.58
2017-08-25T22:35:36.242Z,21.55
2017-08-25T22:38:04.029Z,21.27
2017-08-25T22:40:31.773Z,21.70
2017-08-25T22:42:59.583Z,20.20
2017-08-25T22:45:27.344Z,22.30
2017-08-25T22:47:55.100Z,22.67
2017-08-25T22:50:22.873Z,22.95
2017-08-25T22:52:50.614Z,21.58
2017-08-25T22:55:18.420Z,21.87
2017-08-25T22:57:47.054Z,22.30
2017-08-25T23:00:14.797Z,21.35
2017-08-25T23:02:42.595Z,22.50
2017-08-25T23:05:10.338Z,23.02
2017-08-25T23:07:38.136Z,23.42
2017-08-25T23:10:05.878Z,21.42
2017-08-25T23:12:33.620Z,22.92
2017-08-25T23:15:01.396Z,22.33
2017-08-25T23:17:29.156Z,22.73
2017-08-25T23:19:56.959Z,22.50
2017-08-25T23:22:24.708Z,23.38
2017-08-25T23:24:52.452Z,23.73
2017-08-25T23:27:20.224Z,23.73
2017-08-25T23:29:47.964Z,24.65
2017-08-25T23:32:15.767Z,22.83
2017-08-25T23:34:43.535Z,23.33
2017-08-25T23:37:11.291Z,25.90
2017-08-25T23:39:39.101Z,25.00
2017-08-25T23:42:06.850Z,24.02
2017-08-25T23:44:34.860Z,21.85
2017-08-25T23:47:02.615Z,21.80
2017-08-25T23:49:30.359Z,23.02
2017-08-25T23:51:58.140Z,25.15
2017-08-25T23:54:25.902Z,23.83
2017-08-25T23:56:53.699Z,22.23
2017-08-25T23:59:21.441Z,22.30
